sensor_id;sensor_type;location;lat;lon;timestamp;pressure;altitude;pressure_sealevel;temperature;humidity
71996;BME280;59862;47.732;7.346;2023-08-06T00:02:18;97455.13;;;16.16;74.84
71996;BME280;59862;47.732;7.346;2023-08-06T00:04:45;97458.24;;;16.11;74.79
71996;BME280;59862;47.732;7.346;2023-08-06T00:07:13;97451.66;;;16.18;74.96
71996;BME280;59862;47.732;7.346;2023-08-06T00:09:40;97442.59;;;16.13;74.84
71996;BME280;59862;47.732;7.346;2023-08-06T00:12:08;97445.65;;;16.16;74.40
71996;BME280;59862;47.732;7.346;2023-08-06T00:14:35;97440.79;;;16.27;74.31
71996;BME280;59862;47.732;7.346;2023-08-06T00:17:03;97436.59;;;16.22;73.74
71996;BME280;59862;47.732;7.346;2023-08-06T00:19:32;97434.44;;;16.22;73.46
71996;BME280;59862;47.732;7.346;2023-08-06T00:21:59;97432.70;;;16.18;73.58
71996;BME280;59862;47.732;7.346;2023-08-06T00:24:28;97434.44;;;16.22;73.70
71996;BME280;59862;47.732;7.346;2023-08-06T00:26:55;97435.30;;;16.25;73.67
71996;BME280;59862;47.732;7.346;2023-08-06T00:29:23;97434.44;;;16.22;73.67
71996;BME280;59862;47.732;7.346;2023-08-06T00:31:50;97426.88;;;16.12;74.13
71996;BME280;59862;47.732;7.346;2023-08-06T00:34:17;97418.44;;;16.32;73.34
71996;BME280;59862;47.732;7.346;2023-08-06T00:36:45;97421.48;;;16.35;72.67
71996;BME280;59862;47.732;7.346;2023-08-06T00:39:12;97426.14;;;16.37;72.46
71996;BME280;59862;47.732;7.346;2023-08-06T00:41:40;97417.20;;;16.48;72.54
71996;BME280;59862;47.732;7.346;2023-08-06T00:44:07;97413.45;;;16.49;71.35
71996;BME280;59862;47.732;7.346;2023-08-06T00:46:35;97399.98;;;16.63;70.82
71996;BME280;59862;47.732;7.346;2023-08-06T00:49:02;97404.94;;;16.66;70.48
71996;BME280;59862;47.732;7.346;2023-08-06T00:51:31;97408.17;;;16.66;70.34
71996;BME280;59862;47.732;7.346;2023-08-06T00:53:59;97401.64;;;16.64;70.41
71996;BME280;59862;47.732;7.346;2023-08-06T00:56:27;97405.22;;;16.67;69.74
71996;BME280;59862;47.732;7.346;2023-08-06T00:58:54;97395.27;;;16.71;69.70
71996;BME280;59862;47.732;7.346;2023-08-06T01:01:22;97390.62;;;16.68;70.18
71996;BME280;59862;47.732;7.346;2023-08-06T01:03:49;97389.64;;;16.60;70.74
71996;BME280;59862;47.732;7.346;2023-08-06T01:06:19;97383.73;;;16.63;70.75
71996;BME280;59862;47.732;7.346;2023-08-06T01:08:59;97379.20;;;16.66;70.74
71996;BME280;59862;47.732;7.346;2023-08-06T01:14:30;97385.33;;;16.74;69.69
71996;BME280;59862;47.732;7.346;2023-08-06T01:16:59;97389.27;;;16.80;69.84
71996;BME280;59862;47.732;7.346;2023-08-06T01:19:27;97378.09;;;16.65;69.87
71996;BME280;59862;47.732;7.346;2023-08-06T01:21:54;97371.63;;;16.54;70.89
71996;BME280;59862;47.732;7.346;2023-08-06T01:24:22;97366.61;;;16.60;69.99
71996;BME280;59862;47.732;7.346;2023-08-06T01:26:55;97368.83;;;16.63;69.90
71996;BME280;59862;47.732;7.346;2023-08-06T01:29:25;97369.91;;;16.62;70.21
71996;BME280;59862;47.732;7.346;2023-08-06T01:31:55;97372.37;;;16.76;69.40
71996;BME280;59862;47.732;7.346;2023-08-06T01:34:25;97375.08;;;16.76;69.53
71996;BME280;59862;47.732;7.346;2023-08-06T01:36:54;97382.77;;;16.93;68.79
71996;BME280;59862;47.732;7.346;2023-08-06T01:39:21;97376.70;;;16.77;69.32
71996;BME280;59862;47.732;7.346;2023-08-06T01:41:49;97377.53;;;16.89;69.55
71996;BME280;59862;47.732;7.346;2023-08-06T01:44:18;97377.88;;;16.81;70.55
71996;BME280;59862;47.732;7.346;2023-08-06T01:46:45;97385.20;;;16.57;72.50
71996;BME280;59862;47.732;7.346;2023-08-06T01:49:12;97392.76;;;16.11;76.08
71996;BME280;59862;47.732;7.346;2023-08-06T01:51:40;97388.18;;;15.91;79.95
71996;BME280;59862;47.732;7.346;2023-08-06T01:54:07;97379.09;;;15.85;78.72
71996;BME280;59862;47.732;7.346;2023-08-06T01:56:35;97376.45;;;15.88;80.30
71996;BME280;59862;47.732;7.346;2023-08-06T01:59:02;97377.73;;;15.85;78.60
71996;BME280;59862;47.732;7.346;2023-08-06T02:01:29;97369.38;;;15.75;78.90
71996;BME280;59862;47.732;7.346;2023-08-06T02:03:57;97410.30;;;15.58;81.54
71996;BME280;59862;47.732;7.346;2023-08-06T02:06:24;97420.77;;;15.46;83.13
71996;BME280;59862;47.732;7.346;2023-08-06T02:08:52;97422.95;;;15.19;84.00
71996;BME280;59862;47.732;7.346;2023-08-06T02:11:19;97427.03;;;14.58;84.48
71996;BME280;59862;47.732;7.346;2023-08-06T02:13:46;97439.65;;;14.55;85.71
71996;BME280;59862;47.732;7.346;2023-08-06T02:16:14;97437.92;;;14.36;84.87
71996;BME280;59862;47.732;7.346;2023-08-06T02:18:41;97435.48;;;14.28;85.99
71996;BME280;59862;47.732;7.346;2023-08-06T02:21:09;97437.81;;;14.09;85.63
71996;BME280;59862;47.732;7.346;2023-08-06T02:23:36;97434.79;;;13.99;85.83
71996;BME280;59862;47.732;7.346;2023-08-06T02:26:04;97444.38;;;13.88;86.26
71996;BME280;59862;47.732;7.346;2023-08-06T02:28:32;97447.52;;;13.69;86.37
71996;BME280;59862;47.732;7.346;2023-08-06T02:31:00;97449.19;;;13.48;86.91
71996;BME280;59862;47.732;7.346;2023-08-06T02:33:27;97434.56;;;13.53;87.75
71996;BME280;59862;47.732;7.346;2023-08-06T02:36:03;97436.48;;;13.40;87.42
71996;BME280;59862;47.732;7.346;2023-08-06T02:38:32;97430.58;;;13.40;88.16
71996;BME280;59862;47.732;7.346;2023-08-06T02:41:02;97434.56;;;13.31;88.71
71996;BME280;59862;47.732;7.346;2023-08-06T02:43:30;97428.23;;;13.28;87.42
71996;BME280;59862;47.732;7.346;2023-08-06T02:46:01;97416.42;;;13.07;87.99
71996;BME280;59862;47.732;7.346;2023-08-06T02:48:28;97421.89;;;13.03;88.67
71996;BME280;59862;47.732;7.346;2023-08-06T02:50:59;97426.59;;;12.92;89.59
71996;BME280;59862;47.732;7.346;2023-08-06T02:53:27;97419.33;;;12.99;89.14
71996;BME280;59862;47.732;7.346;2023-08-06T02:55:54;97422.03;;;13.06;88.79
71996;BME280;59862;47.732;7.346;2023-08-06T02:58:22;97426.06;;;13.06;88.86
71996;BME280;59862;47.732;7.346;2023-08-06T03:01:06;97429.16;;;12.96;88.59
71996;BME280;59862;47.732;7.346;2023-08-06T03:03:34;97421.39;;;13.10;88.07
71996;BME280;59862;47.732;7.346;2023-08-06T03:06:02;97415.88;;;13.14;88.29
71996;BME280;59862;47.732;7.346;2023-08-06T03:08:29;97416.70;;;13.08;88.57
71996;BME280;59862;47.732;7.346;2023-08-06T03:10:57;97422.03;;;13.06;88.21
71996;BME280;59862;47.732;7.346;2023-08-06T03:13:24;97427.57;;;13.04;88.63
71996;BME280;59862;47.732;7.346;2023-08-06T03:15:58;97432.27;;;12.93;89.37
71996;BME280;59862;47.732;7.346;2023-08-06T03:18:21;97430.16;;;13.02;88.93
71996;BME280;59862;47.732;7.346;2023-08-06T03:20:50;97439.60;;;13.08;88.36
71996;BME280;59862;47.732;7.346;2023-08-06T03:23:17;97440.86;;;13.12;88.97
71996;BME280;59862;47.732;7.346;2023-08-06T03:25:45;97432.34;;;13.02;89.09
71996;BME280;59862;47.732;7.346;2023-08-06T03:28:13;97427.70;;;13.07;89.41
71996;BME280;59862;47.732;7.346;2023-08-06T03:30:41;97436.83;;;12.99;89.19
71996;BME280;59862;47.732;7.346;2023-08-06T03:33:08;97434.29;;;13.17;88.42
71996;BME280;59862;47.732;7.346;2023-08-06T03:35:35;97433.80;;;13.11;88.96
71996;BME280;59862;47.732;7.346;2023-08-06T03:38:03;97443.86;;;13.07;88.70
71996;BME280;59862;47.732;7.346;2023-08-06T03:40:32;97438.25;;;13.08;87.79
71996;BME280;59862;47.732;7.346;2023-08-06T03:43:00;97436.70;;;13.16;87.54
71996;BME280;59862;47.732;7.346;2023-08-06T03:45:28;97442.72;;;13.12;87.33
71996;BME280;59862;47.732;7.346;2023-08-06T03:47:55;97448.62;;;13.11;86.66
71996;BME280;59862;47.732;7.346;2023-08-06T03:50:23;97457.48;;;13.25;86.28
71996;BME280;59862;47.732;7.346;2023-08-06T03:52:50;97456.23;;;13.27;86.16
71996;BME280;59862;47.732;7.346;2023-08-06T03:55:17;97459.69;;;13.19;85.90
71996;BME280;59862;47.732;7.346;2023-08-06T03:57:45;97461.02;;;13.25;85.75
71996;BME280;59862;47.732;7.346;2023-08-06T04:00:12;97464.91;;;13.51;85.15
71996;BME280;59862;47.732;7.346;2023-08-06T04:02:40;97467.12;;;13.45;85.00
71996;BME280;59862;47.732;7.346;2023-08-06T04:05:08;97469.80;;;13.52;85.26
71996;BME280;59862;47.732;7.346;2023-08-06T04:07:35;97469.59;;;13.53;85.20
71996;BME280;59862;47.732;7.346;2023-08-06T04:10:04;97474.28;;;13.49;85.47
71996;BME280;59862;47.732;7.346;2023-08-06T04:12:32;97463.34;;;13.37;85.69
71996;BME280;59862;47.732;7.346;2023-08-06T04:15:01;97473.55;;;13.51;85.25
71996;BME280;59862;47.732;7.346;2023-08-06T04:17:30;97470.82;;;13.57;84.65
71996;BME280;59862;47.732;7.346;2023-08-06T04:19:57;97460.16;;;13.53;84.20
71996;BME280;59862;47.732;7.346;2023-08-06T04:22:26;97471.59;;;13.64;84.82
71996;BME280;59862;47.732;7.346;2023-08-06T04:24:53;97455.13;;;13.41;84.48
71996;BME280;59862;47.732;7.346;2023-08-06T04:27:20;97470.59;;;13.37;85.70
71996;BME280;59862;47.732;7.346;2023-08-06T04:29:48;97473.70;;;13.40;86.32
71996;BME280;59862;47.732;7.346;2023-08-06T04:32:15;97473.19;;;13.34;86.49
71996;BME280;59862;47.732;7.346;2023-08-06T04:34:43;97480.37;;;13.31;86.71
71996;BME280;59862;47.732;7.346;2023-08-06T04:37:11;97490.41;;;13.33;87.16
71996;BME280;59862;47.732;7.346;2023-08-06T04:39:38;97474.28;;;13.20;87.81
71996;BME280;59862;47.732;7.346;2023-08-06T04:42:06;97469.14;;;13.12;88.34
71996;BME280;59862;47.732;7.346;2023-08-06T04:44:34;97467.92;;;13.30;88.21
71996;BME280;59862;47.732;7.346;2023-08-06T04:47:01;97468.20;;;13.09;87.45
71996;BME280;59862;47.732;7.346;2023-08-06T04:49:28;97464.29;;;13.05;88.22
71996;BME280;59862;47.732;7.346;2023-08-06T04:51:56;97459.80;;;13.08;88.26
71996;BME280;59862;47.732;7.346;2023-08-06T04:54:23;97465.27;;;13.17;87.84
71996;BME280;59862;47.732;7.346;2023-08-06T04:56:51;97471.27;;;13.19;88.22
71996;BME280;59862;47.732;7.346;2023-08-06T04:59:18;97472.02;;;13.11;87.60
71996;BME280;59862;47.732;7.346;2023-08-06T05:01:45;97472.25;;;13.09;87.18
71996;BME280;59862;47.732;7.346;2023-08-06T05:04:13;97473.70;;;13.12;87.27
71996;BME280;59862;47.732;7.346;2023-08-06T05:06:40;97485.35;;;13.21;87.38
71996;BME280;59862;47.732;7.346;2023-08-06T05:09:08;97485.33;;;13.06;86.57
71996;BME280;59862;47.732;7.346;2023-08-06T05:11:35;97477.20;;;13.19;86.83
71996;BME280;59862;47.732;7.346;2023-08-06T05:14:02;97481.14;;;13.16;86.17
71996;BME280;59862;47.732;7.346;2023-08-06T05:16:30;97488.86;;;13.28;86.49
71996;BME280;59862;47.732;7.346;2023-08-06T05:18:57;97485.05;;;13.27;85.24
71996;BME280;59862;47.732;7.346;2023-08-06T05:21:25;97485.02;;;13.33;85.67
71996;BME280;59862;47.732;7.346;2023-08-06T05:23:52;97490.50;;;13.36;85.82
71996;BME280;59862;47.732;7.346;2023-08-06T05:26:20;97493.59;;;13.39;84.63
71996;BME280;59862;47.732;7.346;2023-08-06T05:28:47;97483.30;;;13.45;84.51
71996;BME280;59862;47.732;7.346;2023-08-06T05:31:14;97481.19;;;13.54;83.52
71996;BME280;59862;47.732;7.346;2023-08-06T05:33:42;97499.72;;;13.37;85.12
71996;BME280;59862;47.732;7.346;2023-08-06T05:36:09;97489.49;;;13.52;83.61
71996;BME280;59862;47.732;7.346;2023-08-06T05:38:37;97497.36;;;13.54;83.30
71996;BME280;59862;47.732;7.346;2023-08-06T05:41:04;97501.75;;;13.48;83.72
71996;BME280;59862;47.732;7.346;2023-08-06T05:43:31;97489.34;;;13.34;85.19
71996;BME280;59862;47.732;7.346;2023-08-06T05:45:59;97503.88;;;13.33;85.48
71996;BME280;59862;47.732;7.346;2023-08-06T05:48:26;97520.09;;;13.20;85.71
71996;BME280;59862;47.732;7.346;2023-08-06T05:50:54;97499.90;;;13.14;87.90
71996;BME280;59862;47.732;7.346;2023-08-06T05:53:21;97504.80;;;13.08;88.17
71996;BME280;59862;47.732;7.346;2023-08-06T05:55:49;97505.58;;;13.02;88.57
71996;BME280;59862;47.732;7.346;2023-08-06T05:58:16;97510.88;;;13.19;88.76
71996;BME280;59862;47.732;7.346;2023-08-06T06:00:43;97533.25;;;13.13;88.37
71996;BME280;59862;47.732;7.346;2023-08-06T06:03:12;97515.34;;;12.96;88.69
71996;BME280;59862;47.732;7.346;2023-08-06T06:05:39;97512.77;;;13.05;88.80
71996;BME280;59862;47.732;7.346;2023-08-06T06:08:07;97513.77;;;13.04;88.92
71996;BME280;59862;47.732;7.346;2023-08-06T06:10:34;97502.70;;;13.03;89.03
71996;BME280;59862;47.732;7.346;2023-08-06T06:13:02;97517.51;;;13.03;89.15
71996;BME280;59862;47.732;7.346;2023-08-06T06:15:30;97525.61;;;13.10;88.67
71996;BME280;59862;47.732;7.346;2023-08-06T06:17:57;97528.78;;;13.22;88.30
71996;BME280;59862;47.732;7.346;2023-08-06T06:20:24;97531.23;;;13.30;87.93
71996;BME280;59862;47.732;7.346;2023-08-06T06:22:52;97539.63;;;13.38;87.95
71996;BME280;59862;47.732;7.346;2023-08-06T06:25:19;97541.16;;;13.36;87.13
71996;BME280;59862;47.732;7.346;2023-08-06T06:27:47;97546.52;;;13.49;87.31
71996;BME280;59862;47.732;7.346;2023-08-06T06:30:14;97548.19;;;13.50;86.50
71996;BME280;59862;47.732;7.346;2023-08-06T06:32:41;97544.06;;;13.41;86.94
71996;BME280;59862;47.732;7.346;2023-08-06T06:35:09;97542.30;;;13.44;86.41
71996;BME280;59862;47.732;7.346;2023-08-06T06:37:37;97543.33;;;13.43;87.27
71996;BME280;59862;47.732;7.346;2023-08-06T06:40:05;97551.47;;;13.24;87.46
71996;BME280;59862;47.732;7.346;2023-08-06T06:42:32;97549.57;;;13.37;87.12
71996;BME280;59862;47.732;7.346;2023-08-06T06:45:00;97554.78;;;13.19;88.14
71996;BME280;59862;47.732;7.346;2023-08-06T06:47:27;97559.75;;;13.29;87.97
